sensor_id;sensor_type;location;lat;lon;timestamp;pressure;altitude;pressure_sealevel;temperature;humidity
7050;BME280;22263;52.260;10.548;2023-03-22T00:02:15;79111.84;;;-145.39;100.00
7050;BME280;22263;52.260;10.548;2023-03-22T00:04:44;79111.84;;;-145.39;100.00
7050;BME280;22263;52.260;10.548;2023-03-22T00:07:14;79111.84;;;-145.39;100.00
7050;BME280;22263;52.260;10.548;2023-03-22T00:09:44;79111.84;;;-145.39;100.00
7050;BME280;22263;52.260;10.548;2023-03-22T00:12:13;79111.84;;;-145.39;100.00
7050;BME280;22263;52.260;10.548;2023-03-22T00:14:46;79111.84;;;-145.39;100.00
7050;BME280;22263;52.260;10.548;2023-03-22T00:17:17;79111.84;;;-145.39;100.00
7050;BME280;22263;52.260;10.548;2023-03-22T00:19:48;79111.84;;;-145.39;100.00
7050;BME280;22263;52.260;10.548;2023-03-22T00:22:20;79111.84;;;-145.39;100.00
7050;BME280;22263;52.260;10.548;2023-03-22T00:24:49;79111.84;;;-145.39;100.00
7050;BME280;22263;52.260;10.548;2023-03-22T00:27:19;79111.84;;;-145.39;100.00
7050;BME280;22263;52.260;10.548;2023-03-22T00:29:53;79111.84;;;-145.39;100.00
7050;BME280;22263;52.260;10.548;2023-03-22T00:32:23;79111.84;;;-145.39;100.00
7050;BME280;22263;52.260;10.548;2023-03-22T00:34:54;79111.84;;;-145.39;100.00
7050;BME280;22263;52.260;10.548;2023-03-22T00:37:26;79111.84;;;-145.39;100.00
7050;BME280;22263;52.260;10.548;2023-03-22T00:40:00;79111.84;;;-145.39;100.00
7050;BME280;22263;52.260;10.548;2023-03-22T00:42:30;79111.84;;;-145.39;100.00
7050;BME280;22263;52.260;10.548;2023-03-22T00:45:04;79111.84;;;-145.39;100.00
7050;BME280;22263;52.260;10.548;2023-03-22T00:47:34;79111.84;;;-145.39;100.00
7050;BME280;22263;52.260;10.548;2023-03-22T00:50:05;79111.84;;;-145.39;100.00
7050;BME280;22263;52.260;10.548;2023-03-22T00:52:37;79111.84;;;-145.39;100.00
7050;BME280;22263;52.260;10.548;2023-03-22T00:55:07;79111.84;;;-145.39;100.00
7050;BME280;22263;52.260;10.548;2023-03-22T00:57:36;79111.84;;;-145.39;100.00
7050;BME280;22263;52.260;10.548;2023-03-22T01:00:11;79111.84;;;-145.39;100.00
7050;BME280;22263;52.260;10.548;2023-03-22T01:02:43;79111.84;;;-145.39;100.00
7050;BME280;22263;52.260;10.548;2023-03-22T01:05:17;79111.84;;;-145.39;100.00
7050;BME280;22263;52.260;10.548;2023-03-22T01:07:48;79111.84;;;-145.39;100.00
7050;BME280;22263;52.260;10.548;2023-03-22T01:10:20;79111.84;;;-145.39;100.00
7050;BME280;22263;52.260;10.548;2023-03-22T01:12:51;79111.84;;;-145.39;100.00
7050;BME280;22263;52.260;10.548;2023-03-22T01:15:25;79111.84;;;-145.39;100.00
7050;BME280;22263;52.260;10.548;2023-03-22T01:18:02;100012.44;;;10.22;100.00
7050;BME280;22263;52.260;10.548;2023-03-22T01:20:32;100018.00;;;10.29;100.00
7050;BME280;22263;52.260;10.548;2023-03-22T01:23:02;100010.88;;;10.25;100.00
7050;BME280;22263;52.260;10.548;2023-03-22T01:25:31;100006.53;;;10.24;100.00
7050;BME280;22263;52.260;10.548;2023-03-22T01:27:59;100004.19;;;10.29;100.00
7050;BME280;22263;52.260;10.548;2023-03-22T01:30:29;100007.75;;;10.30;100.00
7050;BME280;22263;52.260;10.548;2023-03-22T01:32:57;100011.69;;;10.32;100.00
7050;BME280;22263;52.260;10.548;2023-03-22T01:35:28;99997.91;;;10.36;100.00
7050;BME280;22263;52.260;10.548;2023-03-22T01:37:58;100004.19;;;10.29;100.00
7050;BME280;22263;52.260;10.548;2023-03-22T01:40:27;100003.81;;;10.34;100.00
7050;BME280;22263;52.260;10.548;2023-03-22T01:42:55;99998.22;;;10.24;100.00
7050;BME280;22263;52.260;10.548;2023-03-22T01:45:38;100000.25;;;10.34;100.00
7050;BME280;22263;52.260;10.548;2023-03-22T01:48:19;99990.38;;;10.36;100.00
7050;BME280;22263;52.260;10.548;2023-03-22T01:50:59;99998.72;;;10.40;100.00
7050;BME280;22263;52.260;10.548;2023-03-22T01:53:33;99992.38;;;10.43;100.00
7050;BME280;22263;52.260;10.548;2023-03-22T01:56:05;99991.59;;;10.35;100.00
7050;BME280;22263;52.260;10.548;2023-03-22T01:58:36;99984.50;;;10.45;100.00
7050;BME280;22263;52.260;10.548;2023-03-22T02:01:08;99982.94;;;10.51;100.00
7050;BME280;22263;52.260;10.548;2023-03-22T02:03:51;99976.22;;;10.52;100.00
7050;BME280;22263;52.260;10.548;2023-03-22T02:06:25;99973.44;;;10.45;100.00
7050;BME280;22263;52.260;10.548;2023-03-22T02:09:02;99967.94;;;10.45;100.00
7050;BME280;22263;52.260;10.548;2023-03-22T02:11:33;99971.06;;;10.40;100.00
7050;BME280;22263;52.260;10.548;2023-03-22T02:14:20;99972.66;;;10.48;100.00
7050;BME280;22263;52.260;10.548;2023-03-22T02:17:08;99971.91;;;10.58;100.00
7050;BME280;22263;52.260;10.548;2023-03-22T02:26:13;99965.97;;;10.56;100.00
7050;BME280;22263;52.260;10.548;2023-03-22T02:28:50;99970.69;;;10.52;100.00
7050;BME280;22263;52.260;10.548;2023-03-22T02:31:31;99973.06;;;10.61;100.00
7050;BME280;22263;52.260;10.548;2023-03-22T02:34:32;99968.75;;;10.60;100.00
7050;BME280;22263;52.260;10.548;2023-03-22T02:40:14;99953.72;;;10.54;100.00
7050;BME280;22263;52.260;10.548;2023-03-22T02:42:54;99959.25;;;10.54;100.00
7050;BME280;22263;52.260;10.548;2023-03-22T02:45:29;99964.00;;;10.53;100.00
7050;BME280;22263;52.260;10.548;2023-03-22T02:48:05;99962.03;;;10.57;100.00
7050;BME280;22263;52.260;10.548;2023-03-22T02:50:38;99969.13;;;10.58;100.00
7050;BME280;22263;52.260;10.548;2023-03-22T02:53:15;99964.00;;;10.60;100.00
7050;BME280;22263;52.260;10.548;2023-03-22T02:55:50;99952.94;;;10.60;100.00
7050;BME280;22263;52.260;10.548;2023-03-22T02:58:24;99960.47;;;10.60;100.00
7050;BME280;22263;52.260;10.548;2023-03-22T03:00:56;99958.06;;;10.58;100.00
7050;BME280;22263;52.260;10.548;2023-03-22T03:03:28;99952.94;;;10.60;100.00
7050;BME280;22263;52.260;10.548;2023-03-22T03:06:00;99958.06;;;10.65;100.00
7050;BME280;22263;52.260;10.548;2023-03-22T03:08:30;99954.53;;;10.61;100.00
7050;BME280;22263;52.260;10.548;2023-03-22T03:11:02;99956.50;;;10.57;100.00
7050;BME280;22263;52.260;10.548;2023-03-22T03:13:30;99957.69;;;10.60;100.00
7050;BME280;22263;52.260;10.548;2023-03-22T03:15:59;99948.19;;;10.57;100.00
7050;BME280;22263;52.260;10.548;2023-03-22T03:18:38;99950.56;;;10.62;100.00
7050;BME280;22263;52.260;10.548;2023-03-22T03:21:23;99950.97;;;10.61;100.00
7050;BME280;22263;52.260;10.548;2023-03-22T03:24:01;99952.53;;;10.65;100.00
7050;BME280;22263;52.260;10.548;2023-03-22T03:26:40;99949.41;;;10.63;100.00
7050;BME280;22263;52.260;10.548;2023-03-22T03:29:14;99942.66;;;10.57;100.00
7050;BME280;22263;52.260;10.548;2023-03-22T03:31:49;99947.81;;;10.59;100.00
7050;BME280;22263;52.260;10.548;2023-03-22T03:34:23;99939.94;;;10.64;100.00
7050;BME280;22263;52.260;10.548;2023-03-22T03:36:55;99941.88;;;10.60;100.00
7050;BME280;22263;52.260;10.548;2023-03-22T03:39:27;99933.97;;;10.55;100.00
7050;BME280;22263;52.260;10.548;2023-03-22T03:42:00;99943.06;;;10.59;100.00
7050;BME280;22263;52.260;10.548;2023-03-22T03:44:30;99931.22;;;10.59;100.00
7050;BME280;22263;52.260;10.548;2023-03-22T03:47:01;99933.56;;;10.60;100.00
7050;BME280;22263;52.260;10.548;2023-03-22T03:49:30;99935.97;;;10.58;100.00
7050;BME280;22263;52.260;10.548;2023-03-22T03:51:58;99942.28;;;10.59;100.00
7050;BME280;22263;52.260;10.548;2023-03-22T03:54:27;99933.56;;;10.60;100.00
7050;BME280;22263;52.260;10.548;2023-03-22T03:56:56;99933.97;;;10.55;100.00
7050;BME280;22263;52.260;10.548;2023-03-22T03:59:26;99931.59;;;10.61;100.00
7050;BME280;22263;52.260;10.548;2023-03-22T04:01:57;99925.66;;;10.55;100.00
7050;BME280;22263;52.260;10.548;2023-03-22T04:04:29;99924.09;;;10.54;100.00
7050;BME280;22263;52.260;10.548;2023-03-22T04:07:02;99926.50;;;10.59;100.00
7050;BME280;22263;52.260;10.548;2023-03-22T04:09:35;99926.47;;;10.63;100.00
7050;BME280;22263;52.260;10.548;2023-03-22T04:12:15;99918.19;;;10.59;100.00
7050;BME280;22263;52.260;10.548;2023-03-22T04:15:00;99927.25;;;10.53;100.00
7050;BME280;22263;52.260;10.548;2023-03-22T04:17:29;99913.44;;;10.56;100.00
7050;BME280;22263;52.260;10.548;2023-03-22T04:19:58;99910.66;;;10.49;100.00
7050;BME280;22263;52.260;10.548;2023-03-22T04:22:33;99911.84;;;10.52;100.00
7050;BME280;22263;52.260;10.548;2023-03-22T04:25:04;99913.81;;;10.51;100.00
7050;BME280;22263;52.260;10.548;2023-03-22T04:27:40;99910.66;;;10.53;100.00
7050;BME280;22263;52.260;10.548;2023-03-22T04:30:14;99909.06;;;10.52;100.00
7050;BME280;22263;52.260;10.548;2023-03-22T04:33:12;99907.09;;;10.52;100.00
7050;BME280;22263;52.260;10.548;2023-03-22T04:36:06;99904.72;;;10.43;100.00
7050;BME280;22263;52.260;10.548;2023-03-22T04:38:46;99894.06;;;10.45;100.00
7050;BME280;22263;52.260;10.548;2023-03-22T04:41:19;99902.34;;;10.45;100.00
7050;BME280;22263;52.260;10.548;2023-03-22T04:43:50;99893.66;;;10.50;100.00
7050;BME280;22263;52.260;10.548;2023-03-22T04:46:21;99892.09;;;10.49;100.00
7050;BME280;22263;52.260;10.548;2023-03-22T04:49:00;99895.66;;;10.50;100.00
7050;BME280;22263;52.260;10.548;2023-03-22T04:51:32;99890.53;;;10.48;100.00
7050;BME280;22263;52.260;10.548;2023-03-22T04:54:14;99893.25;;;10.41;100.00
7050;BME280;22263;52.260;10.548;2023-03-22T04:56:43;99888.16;;;10.43;100.00
7050;BME280;22263;52.260;10.548;2023-03-22T04:59:13;99888.94;;;10.44;100.00
7050;BME280;22263;52.260;10.548;2023-03-22T05:01:47;99894.06;;;10.49;100.00
7050;BME280;22263;52.260;10.548;2023-03-22T05:04:20;99890.13;;;10.46;100.00
7050;BME280;22263;52.260;10.548;2023-03-22T05:06:54;99886.97;;;10.52;100.00
7050;BME280;22263;52.260;10.548;2023-03-22T05:09:29;99891.31;;;10.49;100.00
7050;BME280;22263;52.260;10.548;2023-03-22T05:11:58;99896.06;;;10.52;100.00
7050;BME280;22263;52.260;10.548;2023-03-22T05:14:35;99892.47;;;10.55;100.00
7050;BME280;22263;52.260;10.548;2023-03-22T05:17:06;99888.53;;;10.56;100.00
7050;BME280;22263;52.260;10.548;2023-03-22T05:19:37;99885.41;;;10.54;100.00
7050;BME280;22263;52.260;10.548;2023-03-22T05:22:06;99891.31;;;10.56;100.00
7050;BME280;22263;52.260;10.548;2023-03-22T05:24:42;99884.59;;;10.57;100.00
7050;BME280;22263;52.260;10.548;2023-03-22T05:27:16;99887.38;;;10.57;100.00
7050;BME280;22263;52.260;10.548;2023-03-22T05:30:05;99894.47;;;10.58;100.00
7050;BME280;22263;52.260;10.548;2023-03-22T05:32:59;99890.16;;;10.64;100.00
7050;BME280;22263;52.260;10.548;2023-03-22T05:35:30;99887.78;;;10.63;100.00
7050;BME280;22263;52.260;10.548;2023-03-22T05:38:01;99892.91;;;10.57;100.00
7050;BME280;22263;52.260;10.548;2023-03-22T05:40:32;99883.41;;;10.62;100.00
7050;BME280;22263;52.260;10.548;2023-03-22T05:43:00;99886.97;;;10.55;100.00
7050;BME280;22263;52.260;10.548;2023-03-22T05:45:29;99885.78;;;10.56;100.00
7050;BME280;22263;52.260;10.548;2023-03-22T05:48:09;99894.47;;;10.65;100.00
7050;BME280;22263;52.260;10.548;2023-03-22T05:50:39;99882.63;;;10.65;100.00
7050;BME280;22263;52.260;10.548;2023-03-22T05:53:08;99888.56;;;10.63;100.00
7050;BME280;22263;52.260;10.548;2023-03-22T05:55:55;99888.56;;;10.67;100.00
7050;BME280;22263;52.260;10.548;2023-03-22T05:58:27;99883.44;;;10.76;100.00
7050;BME280;22263;52.260;10.548;2023-03-22T06:00:57;99879.47;;;10.80;100.00
7050;BME280;22263;52.260;10.548;2023-03-22T06:03:50;99876.31;;;10.82;100.00
7050;BME280;22263;52.260;10.548;2023-03-22T06:06:28;99886.22;;;10.83;100.00
7050;BME280;22263;52.260;10.548;2023-03-22T06:09:14;99879.50;;;10.73;100.00
7050;BME280;22263;52.260;10.548;2023-03-22T06:11:48;99882.25;;;10.80;100.00
7050;BME280;22263;52.260;10.548;2023-03-22T06:14:17;99883.44;;;10.72;100.00
7050;BME280;22263;52.260;10.548;2023-03-22T06:17:04;99881.47;;;10.76;100.00
7050;BME280;22263;52.260;10.548;2023-03-22T06:19:35;99881.09;;;10.88;100.00
7050;BME280;22263;52.260;10.548;2023-03-22T06:22:05;99885.78;;;10.84;100.00
7050;BME280;22263;52.260;10.548;2023-03-22T06:24:35;99883.03;;;10.99;100.00
7050;BME280;22263;52.260;10.548;2023-03-22T06:27:08;99881.44;;;10.94;100.00
7050;BME280;22263;52.260;10.548;2023-03-22T06:29:39;99885.78;;;10.99;100.00
7050;BME280;22263;52.260;10.548;2023-03-22T06:32:07;99888.19;;;11.07;100.00
7050;BME280;22263;52.260;10.548;2023-03-22T06:34:38;99881.84;;;11.10;100.00
7050;BME280;22263;52.260;10.548;2023-03-22T06:37:08;99876.69;;;11.19;100.00
7050;BME280;22263;52.260;10.548;2023-03-22T06:39:39;99864.03;;;11.15;100.00
7050;BME280;22263;52.260;10.548;2023-03-22T06:42:08;99870.34;;;11.36;100.00
7050;BME280;22263;52.260;10.548;2023-03-22T06:44:37;99877.84;;;11.36;100.00
7050;BME280;22263;52.260;10.548;2023-03-22T06:47:12;99873.13;;;11.36;100.00
7050;BME280;22263;52.260;10.548;2023-03-22T06:49:46;99874.69;;;11.34;100.00
7050;BME280;22263;52.260;10.548;2023-03-22T06:52:22;99867.16;;;11.38;100.00
7050;BME280;22263;52.260;10.548;2023-03-22T06:54:51;99861.25;;;11.36;100.00
7050;BME280;22263;52.260;10.548;2023-03-22T06:57:20;99866.38;;;11.45;100.00
7050;BME280;22263;52.260;10.548;2023-03-22T06:59:48;99858.44;;;11.47;100.00
7050;BME280;22263;52.260;10.548;2023-03-22T07:02:16;99860.81;;;11.55;100.00
7050;BME280;22263;52.260;10.548;2023-03-22T07:05:08;99849.72;;;11.55;100.00
7050;BME280;22263;52.260;10.548;2023-03-22T07:07:36;99858.03;;;11.48;100.00
7050;BME280;22263;52.260;10.548;2023-03-22T07:10:06;99856.41;;;11.61;100.00
7050;BME280;22263;52.260;10.548;2023-03-22T07:12:35;99856.41;;;11.61;100.00
7050;BME280;22263;52.260;10.548;2023-03-22T07:15:10;99866.28;;;11.69;100.00
7050;BME280;22263;52.260;10.548;2023-03-22T07:17:47;99854.03;;;11.74;100.00
7050;BME280;22263;52.260;10.548;2023-03-22T07:20:18;99850.78;;;11.90;100.00
7050;BME280;22263;52.260;10.548;2023-03-22T07:22:48;99863.41;;;12.01;100.00
7050;BME280;22263;52.260;10.548;2023-03-22T07:25:19;99854.31;;;12.01;100.00
7050;BME280;22263;52.260;10.548;2023-03-22T07:27:53;99861.38;;;12.09;100.00
7050;BME280;22263;52.260;10.548;2023-03-22T07:30:22;99850.25;;;12.16;100.00
7050;BME280;22263;52.260;10.548;2023-03-22T07:32:51;99850.19;;;12.27;100.00
7050;BME280;22263;52.260;10.548;2023-03-22T07:35:21;99832.69;;;12.40;100.00
7050;BME280;22263;52.260;10.548;2023-03-22T07:37:52;99828.97;;;12.61;100.00
7050;BME280;22263;52.260;10.548;2023-03-22T07:40:27;99838.44;;;12.63;100.00
7050;BME280;22263;52.260;10.548;2023-03-22T07:42:56;99833.28;;;12.65;100.00
7050;BME280;22263;52.260;10.548;2023-03-22T07:45:41;99838.03;;;12.65;100.00
7050;BME280;22263;52.260;10.548;2023-03-22T07:48:47;99822.13;;;12.73;100.00
7050;BME280;22263;52.260;10.548;2023-03-22T07:51:44;99821.38;;;12.68;100.00
7050;BME280;22263;52.260;10.548;2023-03-22T07:54:12;99822.19;;;12.62;100.00
7050;BME280;22263;52.260;10.548;2023-03-22T07:56:58;99822.66;;;12.53;100.00
7050;BME280;22263;52.260;10.548;2023-03-22T07:59:27;99815.84;;;12.61;100.00
7050;BME280;22263;52.260;10.548;2023-03-22T08:01:56;99820.28;;;13.00;100.00
7050;BME280;22263;52.260;10.548;2023-03-22T08:04:30;99807.84;;;13.52;100.00
7050;BME280;22263;52.260;10.548;2023-03-22T08:07:21;99818.97;;;14.13;100.00
7050;BME280;22263;52.260;10.548;2023-03-22T08:09:50;99810.16;;;14.18;100.00
7050;BME280;22263;52.260;10.548;2023-03-22T08:12:18;99824.56;;;14.63;100.00
7050;BME280;22263;52.260;10.548;2023-03-22T08:14:54;99807.81;;;15.13;100.00
7050;BME280;22263;52.260;10.548;2023-03-22T08:17:25;99807.72;;;15.17;100.00
7050;BME280;22263;52.260;10.548;2023-03-22T08:19:55;99795.84;;;14.70;100.00
7050;BME280;22263;52.260;10.548;2023-03-22T08:22:40;99797.69;;;14.53;100.00
7050;BME280;22263;52.260;10.548;2023-03-22T08:25:26;99805.34;;;14.72;100.00
7050;BME280;22263;52.260;10.548;2023-03-22T08:28:04;99807.44;;;15.54;100.00
7050;BME280;22263;52.260;10.548;2023-03-22T08:30:32;99811.53;;;16.05;100.00
7050;BME280;22263;52.260;10.548;2023-03-22T08:33:02;99800.50;;;16.34;100.00
7050;BME280;22263;52.260;10.548;2023-03-22T08:35:32;99801.84;;;16.62;100.00
7050;BME280;22263;52.260;10.548;2023-03-22T08:38:02;99792.31;;;16.43;100.00
7050;BME280;22263;52.260;10.548;2023-03-22T08:40:39;99781.00;;;16.67;100.00
7050;BME280;22263;52.260;10.548;2023-03-22T08:43:08;99785.31;;;17.00;100.00
7050;BME280;22263;52.260;10.548;2023-03-22T08:45:36;99784.66;;;16.80;100.00
7050;BME280;22263;52.260;10.548;2023-03-22T08:48:10;99788.03;;;16.55;100.00
7050;BME280;22263;52.260;10.548;2023-03-22T08:50:57;99781.06;;;16.47;100.00
7050;BME280;22263;52.260;10.548;2023-03-22T08:53:37;99775.41;;;16.67;100.00
7050;BME280;22263;52.260;10.548;2023-03-22T08:56:31;99761.47;;;16.67;100.00
7050;BME280;22263;52.260;10.548;2023-03-22T08:59:21;99767.97;;;16.28;100.00
7050;BME280;22263;52.260;10.548;2023-03-22T09:02:11;99765.59;;;15.74;100.00
7050;BME280;22263;52.260;10.548;2023-03-22T09:04:41;99757.75;;;15.69;100.00
7050;BME280;22263;52.260;10.548;2023-03-22T09:07:12;99749.88;;;15.64;100.00
7050;BME280;22263;52.260;10.548;2023-03-22T09:09:46;99748.53;;;15.72;100.00
7050;BME280;22263;52.260;10.548;2023-03-22T09:12:15;99754.59;;;15.87;100.00
7050;BME280;22263;52.260;10.548;2023-03-22T09:14:44;99748.38;;;15.79;100.00
7050;BME280;22263;52.260;10.548;2023-03-22T09:17:14;99751.66;;;15.74;100.00
7050;BME280;22263;52.260;10.548;2023-03-22T09:19:46;99760.97;;;15.67;100.00
7050;BME280;22263;52.260;10.548;2023-03-22T09:22:14;99756.31;;;15.41;100.00
7050;BME280;22263;52.260;10.548;2023-03-22T09:24:48;99747.91;;;15.25;100.00
7050;BME280;22263;52.260;10.548;2023-03-22T09:27:17;99747.94;;;15.21;100.00
7050;BME280;22263;52.260;10.548;2023-03-22T09:29:45;99741.47;;;15.28;100.00
7050;BME280;22263;52.260;10.548;2023-03-22T09:32:16;99735.81;;;15.71;100.00
7050;BME280;22263;52.260;10.548;2023-03-22T09:34:52;99733.97;;;16.65;100.00
7050;BME280;22263;52.260;10.548;2023-03-22T09:37:22;99730.22;;;16.72;100.00
7050;BME280;22263;52.260;10.548;2023-03-22T09:39:58;99734.81;;;16.46;100.00
7050;BME280;22263;52.260;10.548;2023-03-22T09:42:32;99720.63;;;16.24;100.00
7050;BME280;22263;52.260;10.548;2023-03-22T09:45:09;99725.72;;;15.77;100.00
7050;BME280;22263;52.260;10.548;2023-03-22T09:47:43;99737.00;;;15.50;100.00
7050;BME280;22263;52.260;10.548;2023-03-22T09:50:13;99711.53;;;15.52;100.00
7050;BME280;22263;52.260;10.548;2023-03-22T09:52:42;99714.22;;;15.75;100.00
7050;BME280;22263;52.260;10.548;2023-03-22T09:55:20;99713.00;;;15.92;100.00
7050;BME280;22263;52.260;10.548;2023-03-22T09:57:55;99715.47;;;15.90;100.00
7050;BME280;22263;52.260;10.548;2023-03-22T10:00:33;99714.56;;;15.93;100.00
7050;BME280;22263;52.260;10.548;2023-03-22T10:03:12;99722.09;;;16.12;100.00
7050;BME280;22263;52.260;10.548;2023-03-22T10:05:46;99709.88;;;16.71;100.00
7050;BME280;22263;52.260;10.548;2023-03-22T10:08:24;99705.88;;;16.24;100.00
7050;BME280;22263;52.260;10.548;2023-03-22T10:10:58;99710.03;;;15.83;100.00
7050;BME280;22263;52.260;10.548;2023-03-22T10:13:33;99695.28;;;15.47;100.00
7050;BME280;22263;52.260;10.548;2023-03-22T10:16:07;99709.44;;;15.36;100.00
7050;BME280;22263;52.260;10.548;2023-03-22T10:18:41;99713.69;;;15.24;100.00
7050;BME280;22263;52.260;10.548;2023-03-22T10:21:13;99709.75;;;15.22;100.00
7050;BME280;22263;52.260;10.548;2023-03-22T10:23:45;99701.34;;;15.06;100.00
7050;BME280;22263;52.260;10.548;2023-03-22T10:26:19;99694.75;;;15.16;100.00
7050;BME280;22263;52.260;10.548;2023-03-22T10:28:55;99705.44;;;15.37;100.00
7050;BME280;22263;52.260;10.548;2023-03-22T10:31:29;99717.59;;;15.07;100.00
7050;BME280;22263;52.260;10.548;2023-03-22T10:34:01;99703.38;;;15.02;100.00
7050;BME280;22263;52.260;10.548;2023-03-22T10:36:33;99700.34;;;14.96;100.00
7050;BME280;22263;52.260;10.548;2023-03-22T10:39:10;99701.03;;;15.00;100.00
7050;BME280;22263;52.260;10.548;2023-03-22T10:41:44;99699.59;;;15.12;100.00
7050;BME280;22263;52.260;10.548;2023-03-22T10:44:16;99694.19;;;15.05;100.00
7050;BME280;22263;52.260;10.548;2023-03-22T10:46:48;99709.38;;;15.40;100.00
7050;BME280;22263;52.260;10.548;2023-03-22T10:49:22;99691.94;;;15.36;100.00
7050;BME280;22263;52.260;10.548;2023-03-22T10:51:56;99694.69;;;15.75;100.00
7050;BME280;22263;52.260;10.548;2023-03-22T10:54:27;99707.41;;;15.76;100.00
7050;BME280;22263;52.260;10.548;2023-03-22T10:56:57;99696.72;;;15.91;100.00
7050;BME280;22263;52.260;10.548;2023-03-22T10:59:43;99685.63;;;16.36;100.00
7050;BME280;22263;52.260;10.548;2023-03-22T11:02:17;99690.53;;;16.48;100.00
7050;BME280;22263;52.260;10.548;2023-03-22T11:04:47;99690.25;;;16.26;100.00
7050;BME280;22263;52.260;10.548;2023-03-22T11:07:28;99695.31;;;16.31;100.00
7050;BME280;22263;52.260;10.548;2023-03-22T11:10:00;99697.75;;;16.78;100.00
7050;BME280;22263;52.260;10.548;2023-03-22T11:12:47;99688.59;;;17.19;100.00
7050;BME280;22263;52.260;10.548;2023-03-22T11:15:24;99688.41;;;17.93;100.00
7050;BME280;22263;52.260;10.548;2023-03-22T11:17:57;99698.38;;;17.94;100.00
7050;BME280;22263;52.260;10.548;2023-03-22T11:20:27;99694.59;;;17.46;100.00
7050;BME280;22263;52.260;10.548;2023-03-22T11:22:59;99694.00;;;17.26;100.00
7050;BME280;22263;52.260;10.548;2023-03-22T11:25:30;99680.53;;;16.79;100.00
7050;BME280;22263;52.260;10.548;2023-03-22T11:28:13;99695.78;;;16.91;100.00
7050;BME280;22263;52.260;10.548;2023-03-22T11:30:57;99691.31;;;16.93;100.00
7050;BME280;22263;52.260;10.548;2023-03-22T11:33:26;99672.47;;;16.69;100.00
7050;BME280;22263;52.260;10.548;2023-03-22T11:35:56;99678.13;;;16.94;100.00
7050;BME280;22263;52.260;10.548;2023-03-22T11:38:27;99685.09;;;16.73;100.00
7050;BME280;22263;52.260;10.548;2023-03-22T11:40:59;99680.00;;;16.39;100.00
7050;BME280;22263;52.260;10.548;2023-03-22T11:43:34;99675.53;;;16.58;100.00
7050;BME280;22263;52.260;10.548;2023-03-22T11:46:05;99656.09;;;16.38;100.00
7050;BME280;22263;52.260;10.548;2023-03-22T11:48:35;99657.66;;;16.23;100.00
7050;BME280;22263;52.260;10.548;2023-03-22T11:51:07;99648.63;;;16.19;100.00
7050;BME280;22263;52.260;10.548;2023-03-22T11:53:38;99642.16;;;16.22;100.00
7050;BME280;22263;52.260;10.548;2023-03-22T11:56:09;99624.13;;;16.10;100.00
7050;BME280;22263;52.260;10.548;2023-03-22T11:58:52;99641.88;;;16.17;100.00
7050;BME280;22263;52.260;10.548;2023-03-22T12:01:33;99646.59;;;16.20;100.00
7050;BME280;22263;52.260;10.548;2023-03-22T12:04:07;99644.97;;;16.06;100.00
7050;BME280;22263;52.260;10.548;2023-03-22T12:06:38;99639.22;;;15.97;100.00
7050;BME280;22263;52.260;10.548;2023-03-22T12:09:16;99645.28;;;16.08;100.00
7050;BME280;22263;52.260;10.548;2023-03-22T12:11:50;99641.19;;;16.29;100.00
7050;BME280;22263;52.260;10.548;2023-03-22T12:14:25;99645.47;;;16.78;100.00
7050;BME280;22263;52.260;10.548;2023-03-22T12:17:01;99651.09;;;16.91;100.00
7050;BME280;22263;52.260;10.548;2023-03-22T12:19:40;99662.81;;;17.27;100.00
7050;BME280;22263;52.260;10.548;2023-03-22T12:22:13;99653.22;;;17.54;100.00
7050;BME280;22263;52.260;10.548;2023-03-22T12:24:43;99664.59;;;17.34;100.00
7050;BME280;22263;52.260;10.548;2023-03-22T12:27:15;99685.25;;;17.11;100.00
7050;BME280;22263;52.260;10.548;2023-03-22T12:29:51;99656.03;;;16.71;100.00
7050;BME280;22263;52.260;10.548;2023-03-22T12:32:24;99646.91;;;16.54;100.00
7050;BME280;22263;52.260;10.548;2023-03-22T12:34:54;99652.25;;;16.48;100.00
7050;BME280;22263;52.260;10.548;2023-03-22T12:37:45;99655.47;;;16.63;100.00
7050;BME280;22263;52.260;10.548;2023-03-22T12:40:20;99657.97;;;16.57;100.00
7050;BME280;22263;52.260;10.548;2023-03-22T12:42:58;99650.16;;;16.36;100.00
7050;BME280;22263;52.260;10.548;2023-03-22T12:45:32;99641.88;;;16.33;100.00
7050;BME280;22263;52.260;10.548;2023-03-22T12:48:08;99647.69;;;16.54;100.00
7050;BME280;22263;52.260;10.548;2023-03-22T12:50:42;99645.47;;;16.78;100.00
7050;BME280;22263;52.260;10.548;2023-03-22T12:53:14;99640.16;;;16.96;100.00
7050;BME280;22263;52.260;10.548;2023-03-22T12:55:45;99643.94;;;17.57;100.00
7050;BME280;22263;52.260;10.548;2023-03-22T12:58:18;99629.78;;;17.64;100.00
7050;BME280;22263;52.260;10.548;2023-03-22T13:00:52;99649.22;;;17.55;100.00
7050;BME280;22263;52.260;10.548;2023-03-22T13:03:26;99662.22;;;17.20;99.40
7050;BME280;22263;52.260;10.548;2023-03-22T13:06:01;99631.41;;;17.36;100.00
7050;BME280;22263;52.260;10.548;2023-03-22T13:09:09;99634.44;;;17.54;100.00
7050;BME280;22263;52.260;10.548;2023-03-22T13:11:42;99636.25;;;17.61;100.00
7050;BME280;22263;52.260;10.548;2023-03-22T13:14:12;99630.75;;;17.57;98.33
7050;BME280;22263;52.260;10.548;2023-03-22T13:17:05;99630.16;;;17.37;97.81
7050;BME280;22263;52.260;10.548;2023-03-22T13:19:35;99633.03;;;17.08;99.39
7050;BME280;22263;52.260;10.548;2023-03-22T13:22:19;99643.22;;;16.73;100.00
7050;BME280;22263;52.260;10.548;2023-03-22T13:25:30;99625.28;;;16.42;100.00
7050;BME280;22263;52.260;10.548;2023-03-22T13:28:03;99628.28;;;16.19;100.00
7050;BME280;22263;52.260;10.548;2023-03-22T13:30:49;99624.97;;;16.07;100.00
7050;BME280;22263;52.260;10.548;2023-03-22T13:33:23;99620.22;;;15.92;100.00
7050;BME280;22263;52.260;10.548;2023-03-22T13:35:54;99644.19;;;16.05;100.00